AirNav   Duncan Aviation - Near you to keep you flying
 
 1018 users online  

ND07 Punton Private Airport
Absaraka, North Dakota, USA

GOING TO ABSARAKA?


FAA INFORMATION EFFECTIVE 03 NOVEMBER 2022

Location

FAA Identifier: ND07
Lat/Long: 47-00-11.8400N 097-24-23.9100W
47-00.197333N 097-24.398500W
47.0032889,-97.4066417
(estimated)
Elevation: 1103 ft. / 336 m (estimated)
Variation: 07E (1990)
From city: 2 miles NW of ABSARAKA, ND
Time zone: UTC -6 (UTC -5 during Daylight Saving Time)
Zip code: 58007

Airport Operations

Airport use: Private use. Permission required prior to landing
Activation date: 08/1994
Control tower: no
ARTCC: MINNEAPOLIS CENTER
FSS: GRAND FORKS FLIGHT SERVICE STATION
Attendance: UNATNDD
Wind indicator: yes
Segmented circle: no

Nearby radio navigation aids

VOR radial/distance  VOR name  Freq  Var
FARr294/27.3FARGO VOR/DME116.2009E

Airport Services

Runway Information

Runway 17/35

Dimensions: 2600 x 70 ft. / 792 x 21 m
Surface: turf, in good condition
RUNWAY 17  RUNWAY 35
Latitude: 47-00.411167N46-59.983667N
Longitude: 097-24.394500W097-24.402500W
Elevation: 1103.0 ft.1101.0 ft.
Traffic pattern: leftleft
Obstructions: 17 ft. road, 30 ft. from runwaynone

Airport Ownership and Management from official FAA records

Ownership: Privately-owned
Owner: ROB PUNTON
14628-28TH ST SE
AYR, ND 58007-9720
Phone 701-866-0578

Airport Operational Statistics

Aircraft based on the field: 1
Single engine airplanes: 1
    

Additional Remarks

FOR CD CTC MINNEAPOLIS ARTCC AT 651-463-5588.

Instrument Procedures

There are no published instrument procedures at ND07.

Some nearby airports with instrument procedures:

5N8 - Casselton Robert Miller Regional Airport (12 nm SE)
KFAR - Hector International Airport (25 nm E)
KBAC - Barnes County Municipal Airport (25 nm W)
3H4 - Hillsboro Municipal Airport (26 nm NE)
K74 - Robert Odegaard Field Airport (27 nm SE)
 
Loc | Ops | Rwys | IFR | FBO | Links
Com | Nav | Svcs | Stats | Notes

Bismarck Aero Center
AirBoss

 
Area around ND07 (Punton Private Airport)
 
Road maps at: MapQuest Bing Google
 
Aerial photo
No photo
 
Sectional chart

 
Airport distance calculator
Flying to Punton Private Airport? Find the distance to fly.

From to ND07

Sunrise and sunset
Times for 26-Nov-2022
 Local
(UTC-6)
 Zulu
(UTC)
Morning civil twilight07:1513:15
Sunrise07:4913:49
Sunset16:4522:45
Evening civil twilight17:1923:19

Current date and time
Zulu (UTC)  26-Nov-2022 17:00:12
Local (UTC-6)  26-Nov-2022 11:00:12
 
METAR
KFAR 
25nm E 
261653Z 32009KT 10SM CLR 04/M01 A2972 RMK AO2 SLP074 T00391006
KBAC 
25nm W 
261655Z AUTO 33017KT 10SM CLR 03/01 A2976 RMK AO2
KJKJ 
32nm E 
261655Z AUTO 32010KT 10SM CLR 04/00 A2973 RMK AO2 TSNO
KS32 
38nm NW 
261655Z AUTO 32013KT 10SM CLR 03/03 A2977 RMK AO2 TSNO
KGWR 
48nm S 
261655Z AUTO 33013KT 10SM CLR 05/05 A2975 RMK A01
TAF
KFAR 
25nm E 
261124Z 2612/2712 21008KT P6SM SCT250 FM261500 30008KT P6SM SCT250 FM261800 33012G20KT P6SM BKN240 FM270200 32009KT P6SM BKN220
NOTAMs
Click for the latest NOTAMs
NOTAMs are issued by the DoD/FAA and will open in a separate window not controlled by AirNav.

 

 
 

Would you like to see your business listed on this page?

 If your business provides an interesting product or service to pilots, flight crews, aircraft, or users of the Punton Private Airport, you should consider listing it here.  To start the listing process, click on the button below
 
Add a business
 

Other Pages about Punton Private Airport

Update a link
 
Copyright © AirNav, LLC. All rights reserved. Privacy Policy  Contact